createdAt,value
2023-01-29T00:00:27.235Z,87.17
2023-01-29T00:01:27.208Z,87.59
2023-01-29T00:02:27.183Z,87.66
2023-01-29T00:03:27.312Z,87.66
2023-01-29T00:04:27.162Z,87.76
2023-01-29T00:05:28.472Z,87.87
2023-01-29T00:06:27.145Z,87.76
2023-01-29T00:07:27.129Z,87.97
2023-01-29T00:08:27.130Z,87.97
2023-01-29T00:09:27.097Z,87.97
2023-01-29T00:10:27.139Z,87.66
2023-01-29T00:11:27.107Z,87.55
2023-01-29T00:12:27.049Z,87.55
2023-01-29T00:13:27.078Z,87.55
2023-01-29T00:14:27.038Z,87.45
2023-01-29T00:15:27.041Z,87.34
2023-01-29T00:16:27.018Z,87.87
2023-01-29T00:17:26.997Z,88.18
2023-01-29T00:18:26.996Z,88.18
2023-01-29T00:19:26.967Z,88.29
2023-01-29T00:20:26.985Z,88.49
2023-01-29T00:21:27.026Z,88.60
2023-01-29T00:22:26.954Z,88.60
2023-01-29T00:23:26.934Z,88.60
2023-01-29T00:24:26.936Z,88.49
2023-01-29T00:25:26.982Z,88.39
2023-01-29T00:26:26.890Z,88.07
2023-01-29T00:27:26.893Z,88.01
2023-01-29T00:28:26.853Z,87.70
2023-01-29T00:29:26.869Z,87.80
2023-01-29T00:30:26.827Z,88.22
2023-01-29T00:31:27.025Z,88.01
2023-01-29T00:32:26.826Z,87.70
2023-01-29T00:33:26.810Z,87.38
2023-01-29T00:34:26.783Z,87.07
2023-01-29T00:35:26.773Z,87.70
2023-01-29T00:36:26.787Z,87.59
2023-01-29T00:37:26.776Z,87.70
2023-01-29T00:38:26.769Z,88.22
2023-01-29T00:39:33.627Z,87.91
2023-01-29T00:40:26.749Z,87.38
2023-01-29T00:41:26.750Z,87.52
2023-01-29T00:42:26.714Z,87.95
2023-01-29T00:43:26.672Z,87.70
2023-01-29T00:44:26.660Z,87.84
2023-01-29T00:45:26.646Z,87.74
2023-01-29T00:46:26.727Z,87.95
2023-01-29T00:47:26.658Z,87.52
2023-01-29T00:48:26.616Z,87.84
2023-01-29T00:49:26.623Z,87.74
2023-01-29T00:50:26.579Z,87.84
2023-01-29T00:51:26.593Z,87.84
2023-01-29T00:52:26.602Z,87.84
2023-01-29T00:53:26.565Z,88.05
2023-01-29T00:54:26.531Z,88.20
2023-01-29T00:55:26.593Z,88.30
2023-01-29T00:56:26.519Z,87.99
2023-01-29T00:57:26.495Z,87.99
2023-01-29T00:58:26.505Z,88.16
2023-01-29T00:59:26.539Z,88.26
2023-01-29T01:00:26.569Z,88.26
2023-01-29T01:01:26.461Z,88.26
2023-01-29T01:02:26.443Z,88.47
2023-01-29T01:03:26.427Z,87.84
2023-01-29T01:04:26.416Z,87.74
2023-01-29T01:05:26.398Z,88.16
2023-01-29T01:06:26.401Z,88.47
2023-01-29T01:07:26.385Z,88.68
2023-01-29T01:08:26.363Z,88.89
2023-01-29T01:09:26.344Z,89.10
2023-01-29T01:10:26.388Z,88.89
2023-01-29T01:11:26.344Z,88.57
2023-01-29T01:12:26.302Z,88.47
2023-01-29T01:13:26.310Z,88.37
2023-01-29T01:14:26.286Z,87.95
2023-01-29T01:15:26.346Z,88.26
2023-01-29T01:16:26.355Z,87.95
2023-01-29T01:17:26.269Z,87.95
2023-01-29T01:18:26.237Z,88.26
2023-01-29T01:19:26.223Z,88.16
2023-01-29T01:20:26.223Z,87.95
2023-01-29T01:21:26.259Z,87.84
2023-01-29T01:22:26.215Z,87.95
2023-01-29T01:23:26.207Z,87.63
2023-01-29T01:24:26.172Z,87.63
2023-01-29T01:25:26.161Z,87.63
2023-01-29T01:26:26.145Z,87.95
2023-01-29T01:27:26.151Z,87.84
2023-01-29T01:28:26.254Z,88.16
2023-01-29T01:29:26.093Z,88.47
2023-01-29T01:30:26.101Z,88.57
2023-01-29T01:31:26.213Z,87.95
2023-01-29T01:32:26.096Z,87.63
2023-01-29T01:33:26.053Z,87.74
2023-01-29T01:34:26.046Z,87.84
2023-01-29T01:35:26.028Z,88.05
2023-01-29T01:36:26.023Z,87.84
2023-01-29T01:37:26.003Z,87.63
2023-01-29T01:38:26.008Z,88.47
2023-01-29T01:39:25.992Z,88.79
2023-01-29T01:40:25.992Z,89.10
2023-01-29T01:41:25.950Z,88.57
2023-01-29T01:42:25.945Z,88.37
2023-01-29T01:43:25.935Z,88.57
2023-01-29T01:44:25.903Z,88.26
2023-01-29T01:45:25.936Z,88.26
2023-01-29T01:46:25.883Z,88.26
2023-01-29T01:47:25.899Z,88.05
2023-01-29T01:48:25.959Z,88.26
2023-01-29T01:49:25.844Z,88.47
2023-01-29T01:50:25.846Z,88.79
2023-01-29T01:51:25.852Z,88.79
2023-01-29T01:52:25.809Z,88.68
2023-01-29T01:53:25.827Z,88.47
2023-01-29T01:54:25.792Z,88.05
2023-01-29T01:55:25.798Z,87.95
2023-01-29T01:56:25.759Z,88.37
2023-01-29T01:57:25.752Z,88.26
2023-01-29T01:58:25.772Z,88.16
2023-01-29T01:59:25.731Z,87.63
2023-01-29T02:00:25.722Z,87.63
2023-01-29T02:01:25.966Z,87.70
2023-01-29T02:02:25.790Z,88.01
2023-01-29T02:03:25.710Z,88.22
2023-01-29T02:04:25.684Z,88.32
2023-01-29T02:05:25.647Z,88.47
2023-01-29T02:06:25.642Z,88.79
2023-01-29T02:07:25.632Z,88.75
2023-01-29T02:08:25.697Z,88.85
2023-01-29T02:09:25.592Z,88.75
2023-01-29T02:10:25.585Z,88.43
2023-01-29T02:11:25.579Z,88.47
2023-01-29T02:12:25.587Z,88.47
2023-01-29T02:13:25.565Z,88.57
2023-01-29T02:14:25.557Z,88.54
2023-01-29T02:15:25.529Z,88.05
2023-01-29T02:16:25.519Z,87.95
2023-01-29T02:17:25.528Z,87.84
2023-01-29T02:18:25.518Z,87.74
2023-01-29T02:19:25.483Z,87.63
2023-01-29T02:20:25.501Z,88.05
2023-01-29T02:21:25.440Z,88.16
2023-01-29T02:22:25.463Z,88.37
2023-01-29T02:23:25.447Z,88.37
2023-01-29T02:24:25.467Z,87.95
2023-01-29T02:25:25.399Z,87.95
2023-01-29T02:26:25.387Z,88.05
2023-01-29T02:27:25.380Z,88.16
2023-01-29T02:28:25.408Z,88.37
2023-01-29T02:29:25.367Z,88.57
2023-01-29T02:30:25.334Z,88.32
2023-01-29T02:31:25.362Z,88.05
2023-01-29T02:32:25.317Z,88.05
2023-01-29T02:33:25.362Z,87.80
2023-01-29T02:34:25.302Z,88.01
2023-01-29T02:35:25.281Z,88.43
2023-01-29T02:36:25.281Z,88.26
2023-01-29T02:37:25.262Z,88.26
2023-01-29T02:38:25.248Z,88.26
2023-01-29T02:39:25.258Z,87.95
2023-01-29T02:40:25.228Z,88.26
2023-01-29T02:41:25.198Z,88.16
2023-01-29T02:42:25.182Z,88.16
2023-01-29T02:43:25.242Z,88.16
2023-01-29T02:44:25.193Z,88.26
2023-01-29T02:45:25.148Z,88.16
2023-01-29T02:46:25.152Z,87.84
2023-01-29T02:47:25.167Z,88.26
2023-01-29T02:48:25.148Z,88.37
2023-01-29T02:49:25.122Z,88.47
2023-01-29T02:50:25.087Z,88.68
2023-01-29T02:51:25.075Z,88.79
2023-01-29T02:52:25.064Z,88.47
2023-01-29T02:53:25.089Z,88.47
2023-01-29T02:54:25.119Z,88.68
2023-01-29T02:55:25.025Z,88.57
2023-01-29T02:56:25.013Z,88.68
2023-01-29T02:57:25.008Z,88.89
2023-01-29T02:58:24.995Z,89.04
2023-01-29T02:59:25.015Z,89.25
2023-01-29T03:00:24.971Z,89.46
2023-01-29T03:01:25.047Z,89.46
2023-01-29T03:02:25.016Z,89.35
2023-01-29T03:03:24.931Z,89.04
2023-01-29T03:04:24.954Z,88.93
2023-01-29T03:05:24.903Z,88.93
2023-01-29T03:06:24.902Z,88.82
2023-01-29T03:07:24.868Z,88.72
2023-01-29T03:08:24.874Z,88.82
2023-01-29T03:09:24.880Z,88.72
2023-01-29T03:10:24.854Z,88.87
2023-01-29T03:11:24.853Z,89.18
2023-01-29T03:12:24.829Z,89.29
2023-01-29T03:13:24.862Z,89.07
2023-01-29T03:14:24.808Z,88.91
2023-01-29T03:15:24.786Z,88.49
2023-01-29T03:16:24.836Z,88.28
2023-01-29T03:17:24.760Z,88.38
2023-01-29T03:18:24.753Z,89.16
2023-01-29T03:19:24.787Z,89.47
2023-01-29T03:20:24.736Z,90.00
2023-01-29T03:21:24.729Z,90.53
2023-01-29T03:22:24.711Z,90.88
2023-01-29T03:23:24.683Z,91.09
2023-01-29T03:24:24.808Z,91.09
2023-01-29T03:25:24.648Z,90.99
2023-01-29T03:26:24.659Z,90.88
2023-01-29T03:27:24.624Z,90.71
2023-01-29T03:28:24.660Z,90.82
2023-01-29T03:29:24.631Z,90.82
2023-01-29T03:30:24.599Z,90.92
2023-01-29T03:31:24.747Z,91.49
2023-01-29T03:32:24.583Z,92.12
2023-01-29T03:33:24.567Z,92.54
2023-01-29T03:34:24.675Z,92.23
2023-01-29T03:35:24.541Z,92.23
2023-01-29T03:36:24.533Z,92.65
2023-01-29T03:37:24.521Z,92.86
2023-01-29T03:38:24.516Z,92.90
2023-01-29T03:39:24.530Z,93.11
2023-01-29T03:40:24.475Z,93.43
2023-01-29T03:41:24.462Z,93.64
2023-01-29T03:42:24.449Z,93.32
2023-01-29T03:43:24.420Z,93.18
2023-01-29T03:44:24.431Z,92.90
2023-01-29T03:45:24.437Z,92.58
2023-01-29T03:46:24.419Z,92.48
2023-01-29T03:47:24.652Z,92.27
2023-01-29T03:48:24.378Z,92.41
2023-01-29T03:49:24.365Z,92.52
2023-01-29T03:50:24.367Z,92.73
2023-01-29T03:51:24.354Z,92.99
2023-01-29T03:52:24.349Z,93.09
2023-01-29T03:53:24.311Z,92.99
2023-01-29T03:54:24.297Z,92.99
2023-01-29T03:55:24.305Z,93.24
2023-01-29T03:56:24.285Z,93.66
2023-01-29T03:57:24.256Z,93.98
2023-01-29T03:58:24.268Z,94.29
2023-01-29T03:59:24.288Z,95.24
2023-01-29T04:00:24.269Z,95.67
2023-01-29T04:01:24.253Z,95.94
2023-01-29T04:02:24.198Z,95.94
2023-01-29T04:03:24.188Z,95.77
2023-01-29T04:04:24.201Z,95.67
2023-01-29T04:05:24.170Z,95.45
2023-01-29T04:06:24.158Z,95.56
2023-01-29T04:07:24.154Z,95.56
2023-01-29T04:08:24.117Z,95.67
2023-01-29T04:09:24.103Z,95.98
2023-01-29T04:10:24.137Z,95.98
2023-01-29T04:11:24.123Z,96.19
2023-01-29T04:12:24.085Z,96.30
2023-01-29T04:13:24.050Z,96.41
2023-01-29T04:14:24.058Z,96.51
2023-01-29T04:15:24.052Z,96.51
2023-01-29T04:16:24.088Z,96.30
2023-01-29T04:17:24.022Z,96.30
2023-01-29T04:18:24.035Z,96.41
2023-01-29T04:19:23.995Z,96.47
2023-01-29T04:20:24.007Z,96.57
2023-01-29T04:21:23.981Z,96.47
2023-01-29T04:22:23.997Z,96.15
2023-01-29T04:23:23.934Z,95.73
2023-01-29T04:24:24.000Z,95.51
2023-01-29T04:25:23.941Z,95.77
2023-01-29T04:26:23.911Z,96.15
2023-01-29T04:27:23.885Z,96.36
2023-01-29T04:28:23.879Z,96.36
2023-01-29T04:29:23.871Z,96.25
2023-01-29T04:30:23.859Z,96.04
2023-01-29T04:31:23.909Z,96.25
2023-01-29T04:32:23.828Z,96.11
2023-01-29T04:33:23.829Z,96.00
2023-01-29T04:34:23.821Z,95.57
2023-01-29T04:35:23.817Z,95.37
2023-01-29T04:36:23.818Z,95.05
2023-01-29T04:37:23.787Z,94.84
2023-01-29T04:38:23.768Z,94.95
2023-01-29T04:39:23.756Z,94.95
2023-01-29T04:40:23.740Z,94.84
2023-01-29T04:41:23.741Z,94.78
2023-01-29T04:42:23.710Z,94.78
2023-01-29T04:43:23.693Z,94.78
2023-01-29T04:44:23.693Z,94.78
2023-01-29T04:45:23.664Z,95.09
2023-01-29T04:46:23.677Z,95.20
2023-01-29T04:47:23.683Z,95.31
2023-01-29T04:48:23.662Z,95.20
2023-01-29T04:49:23.616Z,94.89
2023-01-29T04:50:23.624Z,94.57
2023-01-29T04:51:23.621Z,94.15
2023-01-29T04:52:23.580Z,93.83
2023-01-29T04:53:23.571Z,94.46
2023-01-29T04:54:23.570Z,94.99
2023-01-29T04:55:23.546Z,95.09
2023-01-29T04:56:23.552Z,95.09
2023-01-29T04:57:23.530Z,94.99
2023-01-29T04:58:23.524Z,94.51
2023-01-29T04:59:23.510Z,94.29
2023-01-29T05:00:23.527Z,94.19
2023-01-29T05:01:23.534Z,94.29
2023-01-29T05:02:23.456Z,94.51
2023-01-29T05:03:23.444Z,94.93
2023-01-29T05:04:23.436Z,95.03
2023-01-29T05:05:23.421Z,94.97
2023-01-29T05:06:23.444Z,95.07
2023-01-29T05:07:23.393Z,95.07
2023-01-29T05:08:23.397Z,94.86
2023-01-29T05:09:23.374Z,94.65
2023-01-29T05:10:23.408Z,94.59
2023-01-29T05:11:23.387Z,94.80
2023-01-29T05:12:23.340Z,94.90
2023-01-29T05:13:23.554Z,94.80
2023-01-29T05:14:23.337Z,94.70
2023-01-29T05:15:23.307Z,94.80
2023-01-29T05:16:23.286Z,95.06
2023-01-29T05:17:23.311Z,95.37
2023-01-29T05:18:23.334Z,95.26
2023-01-29T05:19:23.278Z,95.37
2023-01-29T05:20:23.247Z,95.79
2023-01-29T05:21:23.253Z,96.11
2023-01-29T05:22:23.230Z,96.32
2023-01-29T05:23:23.220Z,96.64
2023-01-29T05:24:23.237Z,97.06
2023-01-29T05:25:23.178Z,97.17
2023-01-29T05:26:23.196Z,97.06
2023-01-29T05:27:23.154Z,96.79
2023-01-29T05:28:23.150Z,96.75
2023-01-29T05:29:23.126Z,96.89
2023-01-29T05:30:23.116Z,97.00
2023-01-29T05:31:23.489Z,97.11
2023-01-29T05:32:23.113Z,97.11
2023-01-29T05:33:23.098Z,97.31
2023-01-29T05:34:23.085Z,97.31
2023-01-29T05:35:23.050Z,97.85
2023-01-29T05:36:23.044Z,98.48
2023-01-29T05:37:23.047Z,98.54
2023-01-29T05:39:18.929Z,98.22
2023-01-29T05:40:19.924Z,98.01
2023-01-29T05:41:19.904Z,97.91
2023-01-29T05:42:19.933Z,97.91
2023-01-29T05:43:19.896Z,97.80
2023-01-29T05:44:19.937Z,97.59
2023-01-29T05:45:19.874Z,97.27
2023-01-29T05:46:19.888Z,97.11
2023-01-29T05:47:20.024Z,97.00
2023-01-29T05:48:19.836Z,97.11
2023-01-29T05:49:19.813Z,97.21
2023-01-29T05:50:19.813Z,97.31
2023-01-29T05:51:19.812Z,97.42
2023-01-29T05:52:19.783Z,97.74
2023-01-29T05:53:19.796Z,98.27
2023-01-29T05:54:19.755Z,98.80
2023-01-29T05:55:19.760Z,99.28
2023-01-29T05:56:19.762Z,99.60
2023-01-29T05:57:19.718Z,99.70
2023-01-29T05:58:19.773Z,99.80
2023-01-29T05:59:19.703Z,99.91
2023-01-29T06:00:19.686Z,99.55
2023-01-29T06:01:19.692Z,99.24
2023-01-29T06:02:19.667Z,98.92
2023-01-29T06:03:19.724Z,98.39
2023-01-29T06:04:19.666Z,98.12
2023-01-29T06:05:19.624Z,98.01
2023-01-29T06:06:19.628Z,97.91
2023-01-29T06:07:19.599Z,97.80
2023-01-29T06:08:19.632Z,97.69
2023-01-29T06:09:19.586Z,97.38
2023-01-29T06:10:19.806Z,97.38
2023-01-29T06:11:19.553Z,97.38
2023-01-29T06:12:19.540Z,97.69
2023-01-29T06:13:19.557Z,98.33
2023-01-29T06:14:19.525Z,98.86
2023-01-29T06:15:19.499Z,99.28
2023-01-29T06:16:19.576Z,99.34
2023-01-29T06:17:19.505Z,99.24
2023-01-29T06:18:19.506Z,99.02
2023-01-29T06:19:19.457Z,98.81
2023-01-29T06:20:19.643Z,98.60
2023-01-29T06:21:20.226Z,98.39
2023-01-29T06:22:19.446Z,98.18
2023-01-29T06:23:19.400Z,98.07
2023-01-29T06:24:19.397Z,97.97
2023-01-29T06:25:19.414Z,98.01
2023-01-29T06:26:19.375Z,98.39
2023-01-29T06:27:19.939Z,98.71
2023-01-29T06:28:19.336Z,98.92
2023-01-29T06:29:19.332Z,99.02
2023-01-29T06:30:19.698Z,99.19
2023-01-29T06:31:36.714Z,99.19
2023-01-29T06:32:19.394Z,99.08
2023-01-29T06:33:19.249Z,98.77
2023-01-29T06:34:19.603Z,98.66
2023-01-29T06:35:19.348Z,98.35
2023-01-29T06:36:19.243Z,98.03
2023-01-29T06:37:20.095Z,97.81
2023-01-29T06:38:19.216Z,97.81
2023-01-29T06:39:19.532Z,97.65
2023-01-29T06:40:19.696Z,97.65
2023-01-29T06:41:19.609Z,97.44
2023-01-29T06:42:19.659Z,97.33
2023-01-29T06:43:19.392Z,97.13
2023-01-29T06:44:19.762Z,97.13
2023-01-29T06:45:21.029Z,97.17
2023-01-29T06:46:19.339Z,97.27
2023-01-29T06:47:19.253Z,97.38
2023-01-29T06:48:19.774Z,97.38
2023-01-29T06:49:19.218Z,97.69
2023-01-29T06:50:19.623Z,97.80
2023-01-29T06:51:19.193Z,97.91
2023-01-29T06:52:20.155Z,98.01
2023-01-29T06:53:19.405Z,97.95
2023-01-29T06:54:19.190Z,97.95
2023-01-29T06:55:19.625Z,97.95
2023-01-29T06:56:19.742Z,98.16
2023-01-29T06:57:19.500Z,98.27
2023-01-29T06:58:19.277Z,98.37
2023-01-29T06:59:18.908Z,98.48
2023-01-29T07:00:19.245Z,98.48
2023-01-29T07:01:34.669Z,98.37
2023-01-29T07:02:19.000Z,98.27
2023-01-29T07:03:18.873Z,98.16
2023-01-29T07:04:18.881Z,97.53
2023-01-29T07:05:18.836Z,97.21
2023-01-29T07:06:18.848Z,97.47
2023-01-29T07:07:18.816Z,97.36
2023-01-29T07:08:18.813Z,97.67
2023-01-29T07:09:18.811Z,97.78
2023-01-29T07:10:19.073Z,97.78
2023-01-29T07:11:18.803Z,97.89
2023-01-29T07:12:18.783Z,97.89
2023-01-29T07:13:18.758Z,97.89
2023-01-29T07:14:18.751Z,97.89
2023-01-29T07:15:18.718Z,97.99
2023-01-29T07:16:18.776Z,98.21
2023-01-29T07:17:18.725Z,98.31
2023-01-29T07:18:18.691Z,98.42
2023-01-29T07:19:18.672Z,98.42
2023-01-29T07:20:18.934Z,98.52
2023-01-29T07:21:18.645Z,98.52
2023-01-29T07:22:18.656Z,98.63
2023-01-29T07:23:18.629Z,98.63
2023-01-29T07:24:18.651Z,98.63
2023-01-29T07:25:18.622Z,98.74
2023-01-29T07:26:18.607Z,98.74
2023-01-29T07:27:18.591Z,98.63
2023-01-29T07:28:18.564Z,98.63
2023-01-29T07:29:18.576Z,98.52
2023-01-29T07:30:18.836Z,98.21
2023-01-29T07:31:18.612Z,98.31
2023-01-29T07:32:18.610Z,98.31
2023-01-29T07:33:18.499Z,98.31
2023-01-29T07:34:18.486Z,97.89
2023-01-29T07:35:18.476Z,97.78
2023-01-29T07:36:18.466Z,97.78
2023-01-29T07:37:18.479Z,97.89
2023-01-29T07:38:18.450Z,97.99
2023-01-29T07:39:18.441Z,98.31
2023-01-29T07:40:18.645Z,98.31
2023-01-29T07:41:18.413Z,98.31
2023-01-29T07:42:18.472Z,98.31
2023-01-29T07:43:18.395Z,98.31
2023-01-29T07:44:18.366Z,98.52
2023-01-29T07:45:18.353Z,98.58
2023-01-29T07:46:18.340Z,98.69
2023-01-29T07:47:18.345Z,98.69
2023-01-29T07:48:18.323Z,98.90
2023-01-29T07:49:18.303Z,99.01
2023-01-29T07:50:18.561Z,99.11
2023-01-29T07:51:18.289Z,99.18
2023-01-29T07:52:19.061Z,99.18
2023-01-29T07:53:18.246Z,98.96
2023-01-29T07:54:18.260Z,98.75
2023-01-29T07:55:18.252Z,98.54
2023-01-29T07:56:18.248Z,98.33
2023-01-29T07:57:18.205Z,98.33
2023-01-29T07:58:18.193Z,98.12
2023-01-29T07:59:18.170Z,97.97
2023-01-29T08:00:18.587Z,97.86
2023-01-29T08:01:18.282Z,97.55
2023-01-29T08:02:18.234Z,97.06
2023-01-29T08:03:18.129Z,96.75
2023-01-29T08:04:18.125Z,96.75
2023-01-29T08:05:18.121Z,96.70
2023-01-29T08:06:18.095Z,96.53
2023-01-29T08:07:18.082Z,96.43
2023-01-29T08:08:18.112Z,96.43
2023-01-29T08:09:18.056Z,96.32
2023-01-29T08:10:18.466Z,96.32
2023-01-29T08:11:18.038Z,96.32
2023-01-29T08:12:18.032Z,96.28
2023-01-29T08:13:18.030Z,96.22
2023-01-29T08:14:17.996Z,96.11
2023-01-29T08:15:18.010Z,96.07
2023-01-29T08:16:18.035Z,96.17
2023-01-29T08:17:17.967Z,96.39
2023-01-29T08:18:17.957Z,96.59
2023-01-29T08:19:17.947Z,96.70
2023-01-29T08:20:18.425Z,96.81
2023-01-29T08:21:17.915Z,96.77
2023-01-29T08:22:17.891Z,96.66
2023-01-29T08:23:17.894Z,96.87
2023-01-29T08:24:17.895Z,96.77
2023-01-29T08:25:17.912Z,96.55
2023-01-29T08:26:17.854Z,96.77
2023-01-29T08:27:17.838Z,96.87
2023-01-29T08:28:17.851Z,96.93
2023-01-29T08:29:17.818Z,96.83
2023-01-29T08:30:18.643Z,96.72
2023-01-29T08:31:17.844Z,96.61
2023-01-29T08:32:17.779Z,96.61
2023-01-29T08:33:23.783Z,96.57
2023-01-29T08:34:17.759Z,96.67
2023-01-29T08:35:18.095Z,96.47
2023-01-29T08:36:17.722Z,96.31
2023-01-29T08:37:17.722Z,96.11
2023-01-29T08:38:17.717Z,96.06
2023-01-29T08:39:17.693Z,95.85
2023-01-29T08:40:18.051Z,95.53
2023-01-29T08:41:17.708Z,95.39
2023-01-29T08:42:17.667Z,94.96
2023-01-29T08:43:17.677Z,94.54
2023-01-29T08:44:17.620Z,94.34
2023-01-29T08:45:17.614Z,94.18
2023-01-29T08:46:17.655Z,93.98
2023-01-29T08:47:17.589Z,93.55
2023-01-29T08:48:17.593Z,93.24
2023-01-29T08:49:17.586Z,93.03
2023-01-29T08:50:18.184Z,92.46
2023-01-29T08:51:17.583Z,91.93
2023-01-29T08:52:17.524Z,91.62
2023-01-29T08:53:17.548Z,91.83
2023-01-29T08:54:17.627Z,91.93
2023-01-29T08:55:17.949Z,91.89
2023-01-29T08:56:17.480Z,91.58
2023-01-29T08:57:17.475Z,90.84
2023-01-29T08:58:17.476Z,90.53
2023-01-29T08:59:17.450Z,90.53
2023-01-29T09:00:17.788Z,90.31
2023-01-29T09:01:17.476Z,90.42
2023-01-29T09:02:17.449Z,90.31
2023-01-29T09:03:17.754Z,90.38
2023-01-29T09:04:17.389Z,90.38
2023-01-29T09:05:17.824Z,90.27
2023-01-29T09:06:17.400Z,90.17
2023-01-29T09:07:17.342Z,90.17
2023-01-29T09:08:17.317Z,90.27
2023-01-29T09:09:17.338Z,90.02
2023-01-29T09:10:17.305Z,89.81
2023-01-29T09:11:17.383Z,89.39
2023-01-29T09:12:17.275Z,88.97
2023-01-29T09:13:17.296Z,88.72
2023-01-29T09:14:17.318Z,88.51
2023-01-29T09:15:17.720Z,88.30
2023-01-29T09:16:17.497Z,88.05
2023-01-29T09:17:17.224Z,87.84
2023-01-29T09:18:17.242Z,87.49
2023-01-29T09:19:17.192Z,86.96
2023-01-29T09:20:17.328Z,86.76
2023-01-29T09:21:17.255Z,86.23
2023-01-29T09:22:17.154Z,86.16
2023-01-29T09:23:17.176Z,86.02
2023-01-29T09:24:17.143Z,86.12
2023-01-29T09:25:17.515Z,86.23
2023-01-29T09:26:17.153Z,85.88
2023-01-29T09:27:17.141Z,85.88
2023-01-29T09:28:17.338Z,86.05
2023-01-29T09:29:17.082Z,85.52
2023-01-29T09:30:17.116Z,84.89
2023-01-29T09:31:17.117Z,84.12
2023-01-29T09:32:37.675Z,83.49
2023-01-29T09:33:17.055Z,83.18
2023-01-29T09:34:17.009Z,83.28
2023-01-29T09:35:17.298Z,82.86
2023-01-29T09:36:17.187Z,82.76
2023-01-29T09:37:16.974Z,83.32
2023-01-29T09:38:16.989Z,83.64
2023-01-29T09:39:17.071Z,83.28
2023-01-29T09:40:16.927Z,83.07
2023-01-29T09:41:17.147Z,83.07
2023-01-29T09:42:16.961Z,82.93
2023-01-29T09:43:17.095Z,82.09
2023-01-29T09:44:16.946Z,82.03
2023-01-29T09:45:17.165Z,82.30
2023-01-29T09:46:16.944Z,81.36
2023-01-29T09:47:16.857Z,81.36
2023-01-29T09:48:16.880Z,81.71
2023-01-29T09:49:16.836Z,81.78
2023-01-29T09:50:18.941Z,82.09
2023-01-29T09:51:16.854Z,82.40
2023-01-29T09:52:16.876Z,82.37
2023-01-29T09:53:16.767Z,81.39
2023-01-29T09:54:16.746Z,81.32
2023-01-29T09:55:17.182Z,81.85
2023-01-29T09:56:16.787Z,82.09
2023-01-29T09:57:16.733Z,82.51
2023-01-29T09:58:16.705Z,82.72
2023-01-29T09:59:16.707Z,82.82
2023-01-29T10:00:16.886Z,82.51
2023-01-29T10:01:16.871Z,82.72
2023-01-29T10:02:16.764Z,83.00
2023-01-29T10:03:16.664Z,82.58
2023-01-29T10:04:16.661Z,82.06
2023-01-29T10:05:17.272Z,82.06
2023-01-29T10:06:16.615Z,81.67
2023-01-29T10:07:16.740Z,81.99
2023-01-29T10:08:16.571Z,82.55
2023-01-29T10:09:16.590Z,82.97
2023-01-29T10:10:16.547Z,82.65
2023-01-29T10:11:16.585Z,82.76
2023-01-29T10:12:16.548Z,82.86
2023-01-29T10:13:16.563Z,83.25
2023-01-29T10:14:16.535Z,83.25
2023-01-29T10:15:16.810Z,82.40
2023-01-29T10:16:16.488Z,82.20
2023-01-29T10:17:16.523Z,82.30
2023-01-29T10:18:16.470Z,82.51
2023-01-29T10:19:16.478Z,82.20
2023-01-29T10:20:16.477Z,82.30
2023-01-29T10:21:16.435Z,82.23
2023-01-29T10:22:16.395Z,82.34
2023-01-29T10:23:16.443Z,82.65
2023-01-29T10:24:16.396Z,83.39
2023-01-29T10:25:16.727Z,84.12
2023-01-29T10:26:16.384Z,84.01
2023-01-29T10:27:16.383Z,82.97
2023-01-29T10:28:16.321Z,83.07
2023-01-29T10:29:16.317Z,83.03
2023-01-29T10:30:16.308Z,82.76
2023-01-29T10:31:16.383Z,83.39
2023-01-29T10:32:16.511Z,83.49
2023-01-29T10:33:16.293Z,83.74
2023-01-29T10:34:16.302Z,84.05
2023-01-29T10:35:16.576Z,84.47
2023-01-29T10:36:16.236Z,84.37
2023-01-29T10:37:16.235Z,84.37
2023-01-29T10:38:16.251Z,84.27
2023-01-29T10:39:16.241Z,84.58
2023-01-29T10:40:16.177Z,84.58
2023-01-29T10:41:16.158Z,84.47
2023-01-29T10:42:16.164Z,84.68
2023-01-29T10:43:16.152Z,84.68
2023-01-29T10:44:16.128Z,84.47
2023-01-29T10:45:16.462Z,84.22
2023-01-29T10:46:16.097Z,84.22
2023-01-29T10:47:16.141Z,83.81
2023-01-29T10:48:16.075Z,83.59
2023-01-29T10:49:16.299Z,83.91
2023-01-29T10:50:16.057Z,83.81
2023-01-29T10:51:16.040Z,84.22
2023-01-29T10:52:16.070Z,84.64
2023-01-29T10:53:16.021Z,84.61
2023-01-29T10:54:16.129Z,84.19
2023-01-29T10:55:16.323Z,83.62
2023-01-29T10:56:22.653Z,83.31
2023-01-29T10:57:15.979Z,82.33
2023-01-29T10:58:15.949Z,82.79
2023-01-29T10:59:15.980Z,82.72
2023-01-29T11:00:15.957Z,84.08
2023-01-29T11:01:15.964Z,83.73
2023-01-29T11:02:15.905Z,83.38
2023-01-29T11:03:26.944Z,83.17
2023-01-29T11:04:15.878Z,82.58
2023-01-29T11:05:16.135Z,83.14
2023-01-29T11:06:15.912Z,83.56
2023-01-29T11:07:15.841Z,84.29
2023-01-29T11:08:15.835Z,84.19
2023-01-29T11:09:15.817Z,84.08
2023-01-29T11:10:15.996Z,84.50
2023-01-29T11:11:15.799Z,84.46
2023-01-29T11:12:15.766Z,83.80
2023-01-29T11:13:15.777Z,83.06
2023-01-29T11:14:15.740Z,82.40
2023-01-29T11:15:15.732Z,81.63
2023-01-29T11:16:15.716Z,81.38
2023-01-29T11:17:15.761Z,80.44
2023-01-29T11:18:15.797Z,79.99
2023-01-29T11:19:15.703Z,79.78
2023-01-29T11:20:15.920Z,78.91
2023-01-29T11:21:15.657Z,78.66
2023-01-29T11:22:15.688Z,78.42
2023-01-29T11:23:15.650Z,77.14
2023-01-29T11:24:15.614Z,77.76
2023-01-29T11:25:15.718Z,77.97
2023-01-29T11:26:15.601Z,78.91
2023-01-29T11:27:15.590Z,79.11
2023-01-29T11:28:15.614Z,80.05
2023-01-29T11:29:15.552Z,78.63
2023-01-29T11:30:15.999Z,78.32
2023-01-29T11:31:15.623Z,79.29
2023-01-29T11:32:15.514Z,79.29
2023-01-29T11:33:15.524Z,80.37
2023-01-29T11:34:15.508Z,78.70
2023-01-29T11:35:15.478Z,78.80
2023-01-29T11:36:15.477Z,78.66
2023-01-29T11:37:15.491Z,77.62
2023-01-29T11:38:15.440Z,78.52
2023-01-29T11:39:15.424Z,77.86
2023-01-29T11:40:15.705Z,77.23
2023-01-29T11:41:15.420Z,76.43
2023-01-29T11:42:15.382Z,76.68
2023-01-29T11:43:15.450Z,77.76
2023-01-29T11:44:15.362Z,78.91
2023-01-29T11:45:15.371Z,79.26
2023-01-29T11:46:15.406Z,80.16
2023-01-29T11:47:15.339Z,80.05
2023-01-29T11:48:15.320Z,79.74
2023-01-29T11:49:20.913Z,79.57
2023-01-29T11:50:15.587Z,80.20
2023-01-29T11:51:15.317Z,79.92
2023-01-29T11:52:15.265Z,79.85
2023-01-29T11:53:15.246Z,80.06
2023-01-29T11:54:15.349Z,80.62
2023-01-29T11:55:15.224Z,81.00
2023-01-29T11:56:15.251Z,81.32
2023-01-29T11:57:15.262Z,81.46
2023-01-29T11:58:15.177Z,82.12
2023-01-29T11:59:15.179Z,82.43
2023-01-29T12:00:15.688Z,82.19
2023-01-29T12:01:15.202Z,82.23
2023-01-29T12:02:15.127Z,82.82
2023-01-29T12:03:15.210Z,81.95
2023-01-29T12:04:15.121Z,81.15
2023-01-29T12:05:15.226Z,82.26
2023-01-29T12:06:15.136Z,82.26
2023-01-29T12:07:15.093Z,80.96
2023-01-29T12:08:15.054Z,80.09
2023-01-29T12:09:16.838Z,79.43
2023-01-29T12:10:15.488Z,79.19
2023-01-29T12:11:15.105Z,78.52
2023-01-29T12:12:15.009Z,78.14
2023-01-29T12:13:14.993Z,78.42
2023-01-29T12:14:14.998Z,78.25
2023-01-29T12:15:14.988Z,77.94
2023-01-29T12:16:15.107Z,78.70
2023-01-29T12:17:14.968Z,79.61
2023-01-29T12:18:14.943Z,79.96
2023-01-29T12:19:15.021Z,80.58
2023-01-29T12:20:15.288Z,80.48
2023-01-29T12:21:14.970Z,79.92
2023-01-29T12:22:14.907Z,80.30
2023-01-29T12:23:14.936Z,79.99
2023-01-29T12:24:14.868Z,79.57
2023-01-29T12:25:14.850Z,80.37
2023-01-29T12:26:15.045Z,80.41
2023-01-29T12:27:14.838Z,80.47
2023-01-29T12:28:14.985Z,80.79
2023-01-29T12:29:14.831Z,80.33
2023-01-29T12:30:15.194Z,79.01
2023-01-29T12:31:14.790Z,79.33
2023-01-29T12:32:14.767Z,79.43
2023-01-29T12:33:14.836Z,79.71
2023-01-29T12:34:14.737Z,79.57
2023-01-29T12:35:14.846Z,79.39
2023-01-29T12:36:14.752Z,79.39
2023-01-29T12:37:14.740Z,79.19
2023-01-29T12:38:14.710Z,78.87
2023-01-29T12:39:14.724Z,78.94
2023-01-29T12:40:15.326Z,78.31
2023-01-29T12:41:14.639Z,78.73
2023-01-29T12:42:14.663Z,79.25
2023-01-29T12:43:14.612Z,78.87
2023-01-29T12:44:14.636Z,78.97
2023-01-29T12:45:14.595Z,78.14
2023-01-29T12:46:14.616Z,78.11
2023-01-29T12:47:17.033Z,78.25
2023-01-29T12:48:14.555Z,78.14
2023-01-29T12:49:14.537Z,79.05
2023-01-29T12:50:15.188Z,78.31
2023-01-29T12:51:14.649Z,78.11
2023-01-29T12:52:14.563Z,78.11
2023-01-29T12:53:14.494Z,77.94